sensor_id;sensor_type;location;lat;lon;timestamp;temperature;humidity
74511;DHT22;62991;50.040;18.400;2022-08-19T00:02:10;23.90;63.40
74511;DHT22;62991;50.040;18.400;2022-08-19T00:05:13;23.90;63.40
74511;DHT22;62991;50.040;18.400;2022-08-19T00:08:15;23.90;63.50
74511;DHT22;62991;50.040;18.400;2022-08-19T00:11:15;23.90;63.30
74511;DHT22;62991;50.040;18.400;2022-08-19T00:14:17;23.90;63.40
74511;DHT22;62991;50.040;18.400;2022-08-19T00:17:18;23.90;63.30
74511;DHT22;62991;50.040;18.400;2022-08-19T00:20:20;23.80;63.40
74511;DHT22;62991;50.040;18.400;2022-08-19T00:23:21;23.80;63.60
74511;DHT22;62991;50.040;18.400;2022-08-19T00:26:22;23.80;63.50
74511;DHT22;62991;50.040;18.400;2022-08-19T00:29:24;23.80;63.50
74511;DHT22;62991;50.040;18.400;2022-08-19T00:32:25;23.80;63.60
74511;DHT22;62991;50.040;18.400;2022-08-19T00:35:26;23.80;63.70
74511;DHT22;62991;50.040;18.400;2022-08-19T00:38:27;23.80;63.80
74511;DHT22;62991;50.040;18.400;2022-08-19T00:41:28;23.80;63.80
74511;DHT22;62991;50.040;18.400;2022-08-19T00:44:30;23.70;64.10
74511;DHT22;62991;50.040;18.400;2022-08-19T00:47:30;23.60;64.30
74511;DHT22;62991;50.040;18.400;2022-08-19T00:50:33;23.60;64.30
74511;DHT22;62991;50.040;18.400;2022-08-19T00:53:34;23.50;64.50
74511;DHT22;62991;50.040;18.400;2022-08-19T00:56:36;23.50;64.80
74511;DHT22;62991;50.040;18.400;2022-08-19T00:59:38;23.40;64.90
74511;DHT22;62991;50.040;18.400;2022-08-19T01:02:41;23.40;65.00
74511;DHT22;62991;50.040;18.400;2022-08-19T01:05:44;23.30;65.20
74511;DHT22;62991;50.040;18.400;2022-08-19T01:08:45;23.30;65.20
74511;DHT22;62991;50.040;18.400;2022-08-19T01:11:46;23.30;65.30
74511;DHT22;62991;50.040;18.400;2022-08-19T01:14:47;23.30;65.20
74511;DHT22;62991;50.040;18.400;2022-08-19T01:17:49;23.20;65.40
74511;DHT22;62991;50.040;18.400;2022-08-19T01:20:52;23.20;65.40
74511;DHT22;62991;50.040;18.400;2022-08-19T01:23:54;23.30;65.30
74511;DHT22;62991;50.040;18.400;2022-08-19T01:26:55;23.30;65.10
74511;DHT22;62991;50.040;18.400;2022-08-19T01:29:56;23.30;65.20
74511;DHT22;62991;50.040;18.400;2022-08-19T01:32:57;23.30;65.40
74511;DHT22;62991;50.040;18.400;2022-08-19T01:36:12;23.30;65.30
74511;DHT22;62991;50.040;18.400;2022-08-19T01:39:17;23.20;65.40
74511;DHT22;62991;50.040;18.400;2022-08-19T01:42:18;23.10;65.80
74511;DHT22;62991;50.040;18.400;2022-08-19T01:45:22;23.10;65.90
74511;DHT22;62991;50.040;18.400;2022-08-19T01:48:22;23.10;66.00
74511;DHT22;62991;50.040;18.400;2022-08-19T01:51:24;23.10;66.00
74511;DHT22;62991;50.040;18.400;2022-08-19T01:54:25;23.00;66.10
74511;DHT22;62991;50.040;18.400;2022-08-19T01:57:26;23.00;66.20
74511;DHT22;62991;50.040;18.400;2022-08-19T02:00:29;22.90;66.40
74511;DHT22;62991;50.040;18.400;2022-08-19T02:03:31;22.80;66.80
74511;DHT22;62991;50.040;18.400;2022-08-19T02:06:32;22.70;67.00
74511;DHT22;62991;50.040;18.400;2022-08-19T02:09:34;22.60;67.40
74511;DHT22;62991;50.040;18.400;2022-08-19T02:12:35;22.50;67.70
74511;DHT22;62991;50.040;18.400;2022-08-19T02:15:36;22.50;67.90
74511;DHT22;62991;50.040;18.400;2022-08-19T02:18:36;22.40;68.20
74511;DHT22;62991;50.040;18.400;2022-08-19T02:21:37;22.40;68.30
74511;DHT22;62991;50.040;18.400;2022-08-19T02:24:38;22.30;68.40
74511;DHT22;62991;50.040;18.400;2022-08-19T02:27:40;22.20;68.60
74511;DHT22;62991;50.040;18.400;2022-08-19T02:30:42;22.20;68.90
74511;DHT22;62991;50.040;18.400;2022-08-19T02:33:44;22.20;68.80
74511;DHT22;62991;50.040;18.400;2022-08-19T02:36:45;22.10;68.90
74511;DHT22;62991;50.040;18.400;2022-08-19T02:39:45;22.10;69.00
74511;DHT22;62991;50.040;18.400;2022-08-19T02:42:46;22.10;69.10
74511;DHT22;62991;50.040;18.400;2022-08-19T02:45:47;22.10;69.20
74511;DHT22;62991;50.040;18.400;2022-08-19T02:48:53;22.00;69.40
74511;DHT22;62991;50.040;18.400;2022-08-19T02:51:56;21.90;69.60
74511;DHT22;62991;50.040;18.400;2022-08-19T02:54:57;21.90;69.70
74511;DHT22;62991;50.040;18.400;2022-08-19T02:57:57;21.90;69.60
74511;DHT22;62991;50.040;18.400;2022-08-19T03:01:00;21.90;69.80
74511;DHT22;62991;50.040;18.400;2022-08-19T03:04:04;21.80;69.80
74511;DHT22;62991;50.040;18.400;2022-08-19T03:07:05;21.80;69.80
74511;DHT22;62991;50.040;18.400;2022-08-19T03:10:06;21.90;69.70
74511;DHT22;62991;50.040;18.400;2022-08-19T03:13:07;21.90;69.60
74511;DHT22;62991;50.040;18.400;2022-08-19T03:16:10;21.90;69.50
74511;DHT22;62991;50.040;18.400;2022-08-19T03:19:11;21.90;69.40
74511;DHT22;62991;50.040;18.400;2022-08-19T03:22:11;21.90;69.40
74511;DHT22;62991;50.040;18.400;2022-08-19T03:25:12;21.90;69.20
74511;DHT22;62991;50.040;18.400;2022-08-19T03:28:14;22.00;69.10
74511;DHT22;62991;50.040;18.400;2022-08-19T03:31:18;22.00;69.10
74511;DHT22;62991;50.040;18.400;2022-08-19T03:34:23;22.00;69.00
74511;DHT22;62991;50.040;18.400;2022-08-19T03:37:27;22.00;68.90
74511;DHT22;62991;50.040;18.400;2022-08-19T03:40:28;22.10;68.80
74511;DHT22;62991;50.040;18.400;2022-08-19T03:43:30;22.10;68.60
74511;DHT22;62991;50.040;18.400;2022-08-19T03:46:32;22.20;68.30
74511;DHT22;62991;50.040;18.400;2022-08-19T03:49:33;22.30;67.90
74511;DHT22;62991;50.040;18.400;2022-08-19T03:52:35;22.50;67.60
74511;DHT22;62991;50.040;18.400;2022-08-19T03:55:40;22.60;67.30
74511;DHT22;62991;50.040;18.400;2022-08-19T03:58:42;22.80;66.80
74511;DHT22;62991;50.040;18.400;2022-08-19T04:01:43;23.00;66.20
74511;DHT22;62991;50.040;18.400;2022-08-19T04:04:44;23.10;66.00
74511;DHT22;62991;50.040;18.400;2022-08-19T04:07:44;23.20;65.70
74511;DHT22;62991;50.040;18.400;2022-08-19T04:10:48;23.30;65.50
74511;DHT22;62991;50.040;18.400;2022-08-19T04:13:51;23.30;65.30
74511;DHT22;62991;50.040;18.400;2022-08-19T04:16:52;23.40;65.00
74511;DHT22;62991;50.040;18.400;2022-08-19T04:19:53;23.50;64.70
74511;DHT22;62991;50.040;18.400;2022-08-19T04:22:54;23.60;64.40
74511;DHT22;62991;50.040;18.400;2022-08-19T04:25:55;23.70;64.20
74511;DHT22;62991;50.040;18.400;2022-08-19T04:28:56;23.70;63.90
74511;DHT22;62991;50.040;18.400;2022-08-19T04:31:57;23.80;63.60
74511;DHT22;62991;50.040;18.400;2022-08-19T04:34:58;23.90;63.40
74511;DHT22;62991;50.040;18.400;2022-08-19T04:37:59;24.00;63.30
74511;DHT22;62991;50.040;18.400;2022-08-19T04:41:02;24.00;63.00
74511;DHT22;62991;50.040;18.400;2022-08-19T04:44:22;24.10;62.90
74511;DHT22;62991;50.040;18.400;2022-08-19T04:47:23;24.10;62.80
74511;DHT22;62991;50.040;18.400;2022-08-19T04:50:25;24.20;62.70
74511;DHT22;62991;50.040;18.400;2022-08-19T04:53:28;24.30;62.70
74511;DHT22;62991;50.040;18.400;2022-08-19T04:56:29;24.30;62.60
74511;DHT22;62991;50.040;18.400;2022-08-19T04:59:30;24.30;62.60
74511;DHT22;62991;50.040;18.400;2022-08-19T05:02:30;24.30;62.60
74511;DHT22;62991;50.040;18.400;2022-08-19T05:05:31;24.30;62.80
74511;DHT22;62991;50.040;18.400;2022-08-19T05:08:34;24.30;62.70
74511;DHT22;62991;50.040;18.400;2022-08-19T05:11:37;24.40;62.60
74511;DHT22;62991;50.040;18.400;2022-08-19T05:14:39;24.40;62.70
74511;DHT22;62991;50.040;18.400;2022-08-19T05:17:40;24.40;62.70
74511;DHT22;62991;50.040;18.400;2022-08-19T05:21:06;24.50;62.50
74511;DHT22;62991;50.040;18.400;2022-08-19T05:24:26;24.40;62.70
74511;DHT22;62991;50.040;18.400;2022-08-19T05:27:27;24.30;62.90
74511;DHT22;62991;50.040;18.400;2022-08-19T05:30:28;24.20;63.10
74511;DHT22;62991;50.040;18.400;2022-08-19T05:33:30;24.20;63.30
74511;DHT22;62991;50.040;18.400;2022-08-19T05:36:34;24.10;63.50
74511;DHT22;62991;50.040;18.400;2022-08-19T05:39:37;24.10;63.60
74511;DHT22;62991;50.040;18.400;2022-08-19T05:42:38;24.10;63.60
74511;DHT22;62991;50.040;18.400;2022-08-19T05:45:41;24.10;63.60
74511;DHT22;62991;50.040;18.400;2022-08-19T05:48:42;24.20;63.40
74511;DHT22;62991;50.040;18.400;2022-08-19T05:51:45;24.30;63.30
74511;DHT22;62991;50.040;18.400;2022-08-19T05:54:46;24.40;63.20
74511;DHT22;62991;50.040;18.400;2022-08-19T05:57:48;24.40;63.20
74511;DHT22;62991;50.040;18.400;2022-08-19T06:00:52;24.50;63.20
74511;DHT22;62991;50.040;18.400;2022-08-19T06:07:21;24.80;62.90
74511;DHT22;62991;50.040;18.400;2022-08-19T06:10:22;24.90;62.70
74511;DHT22;62991;50.040;18.400;2022-08-19T06:13:24;25.10;62.60
74511;DHT22;62991;50.040;18.400;2022-08-19T06:19:53;25.30;62.30
74511;DHT22;62991;50.040;18.400;2022-08-19T06:23:11;25.50;62.00
74511;DHT22;62991;50.040;18.400;2022-08-19T06:26:13;25.60;61.80
74511;DHT22;62991;50.040;18.400;2022-08-19T06:29:15;25.70;61.60
74511;DHT22;62991;50.040;18.400;2022-08-19T06:32:17;25.80;61.60
74511;DHT22;62991;50.040;18.400;2022-08-19T06:35:19;25.90;61.40
74511;DHT22;62991;50.040;18.400;2022-08-19T06:38:20;26.00;61.20
74511;DHT22;62991;50.040;18.400;2022-08-19T06:41:23;26.20;60.40
74511;DHT22;62991;50.040;18.400;2022-08-19T06:44:27;26.30;60.10
74511;DHT22;62991;50.040;18.400;2022-08-19T06:47:28;26.40;59.50
74511;DHT22;62991;50.040;18.400;2022-08-19T06:50:29;26.60;59.20
74511;DHT22;62991;50.040;18.400;2022-08-19T06:53:31;26.70;58.70
74511;DHT22;62991;50.040;18.400;2022-08-19T06:56:33;26.80;58.20
74511;DHT22;62991;50.040;18.400;2022-08-19T06:59:35;26.90;57.70
74511;DHT22;62991;50.040;18.400;2022-08-19T07:02:37;27.00;57.00
74511;DHT22;62991;50.040;18.400;2022-08-19T07:05:41;27.10;56.90
74511;DHT22;62991;50.040;18.400;2022-08-19T07:08:42;27.30;56.10
74511;DHT22;62991;50.040;18.400;2022-08-19T07:11:51;27.40;55.70
74511;DHT22;62991;50.040;18.400;2022-08-19T07:14:52;27.60;55.60
74511;DHT22;62991;50.040;18.400;2022-08-19T07:17:53;27.80;55.40
74511;DHT22;62991;50.040;18.400;2022-08-19T07:21:15;28.00;54.90
74511;DHT22;62991;50.040;18.400;2022-08-19T07:24:17;28.20;54.60
74511;DHT22;62991;50.040;18.400;2022-08-19T07:27:18;28.30;54.60
74511;DHT22;62991;50.040;18.400;2022-08-19T07:30:19;28.50;54.40
74511;DHT22;62991;50.040;18.400;2022-08-19T07:33:20;28.60;53.80
74511;DHT22;62991;50.040;18.400;2022-08-19T07:36:24;28.70;53.20
74511;DHT22;62991;50.040;18.400;2022-08-19T07:39:27;28.80;53.20
74511;DHT22;62991;50.040;18.400;2022-08-19T07:42:28;28.80;53.00
74511;DHT22;62991;50.040;18.400;2022-08-19T07:45:30;28.90;52.60
74511;DHT22;62991;50.040;18.400;2022-08-19T07:48:31;29.00;52.30
74511;DHT22;62991;50.040;18.400;2022-08-19T07:51:34;29.00;52.00
74511;DHT22;62991;50.040;18.400;2022-08-19T07:54:37;29.00;51.80
74511;DHT22;62991;50.040;18.400;2022-08-19T07:57:38;29.00;51.60
74511;DHT22;62991;50.040;18.400;2022-08-19T08:00:39;29.00;51.40
74511;DHT22;62991;50.040;18.400;2022-08-19T08:03:40;29.10;51.00
74511;DHT22;62991;50.040;18.400;2022-08-19T08:06:59;29.10;51.20
74511;DHT22;62991;50.040;18.400;2022-08-19T08:10:19;29.20;51.30
74511;DHT22;62991;50.040;18.400;2022-08-19T08:13:19;29.40;51.00
74511;DHT22;62991;50.040;18.400;2022-08-19T08:16:20;29.60;51.00
74511;DHT22;62991;50.040;18.400;2022-08-19T08:19:23;29.80;51.10
74511;DHT22;62991;50.040;18.400;2022-08-19T08:22:24;29.90;51.10
74511;DHT22;62991;50.040;18.400;2022-08-19T08:25:44;30.00;51.10
74511;DHT22;62991;50.040;18.400;2022-08-19T08:28:44;30.20;51.00
74511;DHT22;62991;50.040;18.400;2022-08-19T08:31:47;30.30;50.70
74511;DHT22;62991;50.040;18.400;2022-08-19T08:34:47;30.40;50.60
74511;DHT22;62991;50.040;18.400;2022-08-19T08:37:50;30.40;50.60
74511;DHT22;62991;50.040;18.400;2022-08-19T08:40:58;30.50;50.50
74511;DHT22;62991;50.040;18.400;2022-08-19T08:44:13;30.60;50.40
74511;DHT22;62991;50.040;18.400;2022-08-19T08:47:18;30.70;50.50
74511;DHT22;62991;50.040;18.400;2022-08-19T08:50:29;30.80;50.40
74511;DHT22;62991;50.040;18.400;2022-08-19T08:53:42;31.00;50.30
74511;DHT22;62991;50.040;18.400;2022-08-19T08:56:44;31.10;50.10
74511;DHT22;62991;50.040;18.400;2022-08-19T08:59:47;31.20;50.20
74511;DHT22;62991;50.040;18.400;2022-08-19T09:02:53;31.30;49.50
74511;DHT22;62991;50.040;18.400;2022-08-19T09:06:07;31.30;49.30
74511;DHT22;62991;50.040;18.400;2022-08-19T09:12:42;31.50;49.20
74511;DHT22;62991;50.040;18.400;2022-08-19T09:15:49;31.60;48.50
74511;DHT22;62991;50.040;18.400;2022-08-19T09:18:57;31.70;48.50
74511;DHT22;62991;50.040;18.400;2022-08-19T09:21:59;31.80;48.30
74511;DHT22;62991;50.040;18.400;2022-08-19T09:25:02;31.90;48.20
74511;DHT22;62991;50.040;18.400;2022-08-19T09:28:03;32.10;48.30
74511;DHT22;62991;50.040;18.400;2022-08-19T09:31:04;32.30;48.30
74511;DHT22;62991;50.040;18.400;2022-08-19T09:34:04;32.50;47.70
74511;DHT22;62991;50.040;18.400;2022-08-19T09:37:05;32.60;47.20
74511;DHT22;62991;50.040;18.400;2022-08-19T09:40:07;32.70;46.40
74511;DHT22;62991;50.040;18.400;2022-08-19T09:43:08;32.70;46.00
74511;DHT22;62991;50.040;18.400;2022-08-19T09:46:11;32.80;46.10
74511;DHT22;62991;50.040;18.400;2022-08-19T09:49:12;33.00;45.70
74511;DHT22;62991;50.040;18.400;2022-08-19T09:52:14;33.10;45.50
74511;DHT22;62991;50.040;18.400;2022-08-19T09:55:16;33.20;45.70
74511;DHT22;62991;50.040;18.400;2022-08-19T09:58:17;33.40;45.20
74511;DHT22;62991;50.040;18.400;2022-08-19T10:01:22;33.50;44.90
74511;DHT22;62991;50.040;18.400;2022-08-19T10:04:23;33.60;45.00
74511;DHT22;62991;50.040;18.400;2022-08-19T10:07:44;33.70;44.60
74511;DHT22;62991;50.040;18.400;2022-08-19T10:10:45;33.90;44.80
74511;DHT22;62991;50.040;18.400;2022-08-19T10:13:47;34.10;44.70
74511;DHT22;62991;50.040;18.400;2022-08-19T10:16:48;34.30;44.50
74511;DHT22;62991;50.040;18.400;2022-08-19T10:20:01;34.40;44.30
74511;DHT22;62991;50.040;18.400;2022-08-19T10:23:20;34.50;44.40
74511;DHT22;62991;50.040;18.400;2022-08-19T10:26:26;34.60;44.20
74511;DHT22;62991;50.040;18.400;2022-08-19T10:29:27;34.70;44.30
74511;DHT22;62991;50.040;18.400;2022-08-19T10:32:29;34.90;43.90
74511;DHT22;62991;50.040;18.400;2022-08-19T10:35:29;35.10;43.80
74511;DHT22;62991;50.040;18.400;2022-08-19T10:38:30;35.30;43.80
74511;DHT22;62991;50.040;18.400;2022-08-19T10:41:34;35.40;43.30
74511;DHT22;62991;50.040;18.400;2022-08-19T10:44:35;35.50;43.00
74511;DHT22;62991;50.040;18.400;2022-08-19T10:47:36;35.40;42.40
74511;DHT22;62991;50.040;18.400;2022-08-19T10:50:38;35.20;42.30
74511;DHT22;62991;50.040;18.400;2022-08-19T10:53:59;35.00;42.40
74511;DHT22;62991;50.040;18.400;2022-08-19T10:56:59;34.90;42.70
74511;DHT22;62991;50.040;18.400;2022-08-19T11:00:00;35.00;42.60
74511;DHT22;62991;50.040;18.400;2022-08-19T11:03:01;35.10;42.60
74511;DHT22;62991;50.040;18.400;2022-08-19T11:06:05;35.20;42.40
74511;DHT22;62991;50.040;18.400;2022-08-19T11:09:06;35.40;42.30
74511;DHT22;62991;50.040;18.400;2022-08-19T11:12:08;35.60;42.20
74511;DHT22;62991;50.040;18.400;2022-08-19T11:15:10;35.80;41.90
74511;DHT22;62991;50.040;18.400;2022-08-19T11:18:11;36.00;41.80
74511;DHT22;62991;50.040;18.400;2022-08-19T11:21:13;36.30;41.90
74511;DHT22;62991;50.040;18.400;2022-08-19T11:24:23;36.80;41.60
74511;DHT22;62991;50.040;18.400;2022-08-19T11:27:24;37.20;41.30
74511;DHT22;62991;50.040;18.400;2022-08-19T11:30:25;37.60;40.30
74511;DHT22;62991;50.040;18.400;2022-08-19T11:33:25;37.60;39.40
74511;DHT22;62991;50.040;18.400;2022-08-19T11:36:27;37.50;39.30
74511;DHT22;62991;50.040;18.400;2022-08-19T11:39:30;37.70;39.50
74511;DHT22;62991;50.040;18.400;2022-08-19T11:42:31;38.00;39.60
74511;DHT22;62991;50.040;18.400;2022-08-19T11:45:50;38.20;39.50
74511;DHT22;62991;50.040;18.400;2022-08-19T11:48:51;38.40;39.50
74511;DHT22;62991;50.040;18.400;2022-08-19T11:51:52;38.50;39.10
74511;DHT22;62991;50.040;18.400;2022-08-19T11:54:53;38.40;39.30
74511;DHT22;62991;50.040;18.400;2022-08-19T11:57:54;38.50;38.90
74511;DHT22;62991;50.040;18.400;2022-08-19T12:00:55;38.40;38.60
74511;DHT22;62991;50.040;18.400;2022-08-19T12:03:57;38.20;38.90
74511;DHT22;62991;50.040;18.400;2022-08-19T12:06:57;38.00;38.60
74511;DHT22;62991;50.040;18.400;2022-08-19T12:09:59;37.80;38.60
74511;DHT22;62991;50.040;18.400;2022-08-19T12:13:00;37.60;38.50
74511;DHT22;62991;50.040;18.400;2022-08-19T12:16:10;37.40;38.90
74511;DHT22;62991;50.040;18.400;2022-08-19T12:19:12;37.30;39.00
74511;DHT22;62991;50.040;18.400;2022-08-19T12:22:13;37.20;39.10
74511;DHT22;62991;50.040;18.400;2022-08-19T12:25:14;37.00;39.40
74511;DHT22;62991;50.040;18.400;2022-08-19T12:28:15;36.70;39.40
74511;DHT22;62991;50.040;18.400;2022-08-19T12:31:16;36.60;39.50
74511;DHT22;62991;50.040;18.400;2022-08-19T12:34:18;36.60;39.60
74511;DHT22;62991;50.040;18.400;2022-08-19T12:37:20;36.60;39.60
74511;DHT22;62991;50.040;18.400;2022-08-19T12:40:21;36.50;39.70
74511;DHT22;62991;50.040;18.400;2022-08-19T12:43:22;36.40;39.80
74511;DHT22;62991;50.040;18.400;2022-08-19T12:46:22;36.60;39.90
74511;DHT22;62991;50.040;18.400;2022-08-19T12:49:23;36.80;40.00
74511;DHT22;62991;50.040;18.400;2022-08-19T12:52:26;37.30;40.00
74511;DHT22;62991;50.040;18.400;2022-08-19T12:55:27;37.60;39.60
74511;DHT22;62991;50.040;18.400;2022-08-19T12:58:29;37.80;39.60
74511;DHT22;62991;50.040;18.400;2022-08-19T13:01:30;37.80;39.60
74511;DHT22;62991;50.040;18.400;2022-08-19T13:04:34;37.70;39.60
74511;DHT22;62991;50.040;18.400;2022-08-19T13:07:38;37.70;39.70
74511;DHT22;62991;50.040;18.400;2022-08-19T13:10:39;37.70;39.80
74511;DHT22;62991;50.040;18.400;2022-08-19T13:13:41;37.40;39.80
74511;DHT22;62991;50.040;18.400;2022-08-19T13:16:42;37.20;40.00
74511;DHT22;62991;50.040;18.400;2022-08-19T13:19:43;37.40;40.40
74511;DHT22;62991;50.040;18.400;2022-08-19T13:22:45;37.90;40.30
74511;DHT22;62991;50.040;18.400;2022-08-19T13:25:58;38.40;39.90
74511;DHT22;62991;50.040;18.400;2022-08-19T13:28:59;39.00;39.60
74511;DHT22;62991;50.040;18.400;2022-08-19T13:32:19;39.80;39.10
74511;DHT22;62991;50.040;18.400;2022-08-19T13:35:48;40.30;38.60
74511;DHT22;62991;50.040;18.400;2022-08-19T13:38:49;40.50;37.90
74511;DHT22;62991;50.040;18.400;2022-08-19T13:41:50;40.50;37.90
74511;DHT22;62991;50.040;18.400;2022-08-19T13:44:53;40.40;37.80
74511;DHT22;62991;50.040;18.400;2022-08-19T13:47:56;40.40;37.60
74511;DHT22;62991;50.040;18.400;2022-08-19T13:50:57;40.50;37.60
74511;DHT22;62991;50.040;18.400;2022-08-19T13:53:58;41.10;37.40
74511;DHT22;62991;50.040;18.400;2022-08-19T13:56:59;41.60;36.90
74511;DHT22;62991;50.040;18.400;2022-08-19T14:00:00;42.00;36.30
74511;DHT22;62991;50.040;18.400;2022-08-19T14:03:02;42.20;36.00
74511;DHT22;62991;50.040;18.400;2022-08-19T14:06:03;42.20;35.60
74511;DHT22;62991;50.040;18.400;2022-08-19T14:09:04;42.00;35.60
74511;DHT22;62991;50.040;18.400;2022-08-19T14:12:06;41.80;35.60
74511;DHT22;62991;50.040;18.400;2022-08-19T14:15:09;41.70;35.50
74511;DHT22;62991;50.040;18.400;2022-08-19T14:18:10;41.70;35.30
74511;DHT22;62991;50.040;18.400;2022-08-19T14:21:16;41.80;35.40
74511;DHT22;62991;50.040;18.400;2022-08-19T14:24:18;41.90;35.30
74511;DHT22;62991;50.040;18.400;2022-08-19T14:27:18;41.90;35.00
74511;DHT22;62991;50.040;18.400;2022-08-19T14:30:22;41.60;34.80
74511;DHT22;62991;50.040;18.400;2022-08-19T14:33:25;41.00;35.00
74511;DHT22;62991;50.040;18.400;2022-08-19T14:36:26;40.20;35.40
74511;DHT22;62991;50.040;18.400;2022-08-19T14:39:27;39.70;35.90
74511;DHT22;62991;50.040;18.400;2022-08-19T14:42:28;39.70;36.10
74511;DHT22;62991;50.040;18.400;2022-08-19T14:45:31;40.10;35.80
74511;DHT22;62991;50.040;18.400;2022-08-19T14:48:31;40.10;35.90
74511;DHT22;62991;50.040;18.400;2022-08-19T14:51:36;39.90;36.20
74511;DHT22;62991;50.040;18.400;2022-08-19T14:54:37;39.50;36.50
74511;DHT22;62991;50.040;18.400;2022-08-19T14:57:39;38.90;37.00
74511;DHT22;62991;50.040;18.400;2022-08-19T15:00:40;38.40;39.00
74511;DHT22;62991;50.040;18.400;2022-08-19T15:03:41;37.90;41.30
74511;DHT22;62991;50.040;18.400;2022-08-19T15:06:42;37.30;43.30
74511;DHT22;62991;50.040;18.400;2022-08-19T15:09:42;36.70;45.20
74511;DHT22;62991;50.040;18.400;2022-08-19T15:12:43;36.10;47.10
74511;DHT22;62991;50.040;18.400;2022-08-19T15:15:44;35.40;48.00
74511;DHT22;62991;50.040;18.400;2022-08-19T15:18:46;34.60;49.00
74511;DHT22;62991;50.040;18.400;2022-08-19T15:21:50;34.00;49.70
74511;DHT22;62991;50.040;18.400;2022-08-19T15:24:50;33.50;50.30
74511;DHT22;62991;50.040;18.400;2022-08-19T15:27:51;33.20;50.80
74511;DHT22;62991;50.040;18.400;2022-08-19T15:30:53;32.80;51.30
74511;DHT22;62991;50.040;18.400;2022-08-19T15:33:55;32.60;51.80
74511;DHT22;62991;50.040;18.400;2022-08-19T15:36:57;32.40;52.00
74511;DHT22;62991;50.040;18.400;2022-08-19T15:39:59;32.30;52.40
74511;DHT22;62991;50.040;18.400;2022-08-19T15:43:00;31.80;51.60
74511;DHT22;62991;50.040;18.400;2022-08-19T15:46:01;30.20;54.40
74511;DHT22;62991;50.040;18.400;2022-08-19T15:49:02;28.30;57.20
74511;DHT22;62991;50.040;18.400;2022-08-19T15:52:03;27.30;59.00
74511;DHT22;62991;50.040;18.400;2022-08-19T15:55:06;26.90;59.90
74511;DHT22;62991;50.040;18.400;2022-08-19T15:58:10;26.80;60.30
74511;DHT22;62991;50.040;18.400;2022-08-19T16:01:30;26.70;60.60
74511;DHT22;62991;50.040;18.400;2022-08-19T16:04:33;26.70;60.60
74511;DHT22;62991;50.040;18.400;2022-08-19T16:07:53;26.50;60.80
74511;DHT22;62991;50.040;18.400;2022-08-19T16:10:54;26.50;61.10
74511;DHT22;62991;50.040;18.400;2022-08-19T16:13:57;26.50;61.20
74511;DHT22;62991;50.040;18.400;2022-08-19T16:16:58;26.40;61.20
74511;DHT22;62991;50.040;18.400;2022-08-19T16:19:58;26.30;61.40
74511;DHT22;62991;50.040;18.400;2022-08-19T16:22:59;26.30;61.40
74511;DHT22;62991;50.040;18.400;2022-08-19T16:26:02;26.20;61.60
74511;DHT22;62991;50.040;18.400;2022-08-19T16:29:04;26.10;61.50
74511;DHT22;62991;50.040;18.400;2022-08-19T16:32:08;25.70;62.20
74511;DHT22;62991;50.040;18.400;2022-08-19T16:35:09;25.40;62.80
74511;DHT22;62991;50.040;18.400;2022-08-19T16:38:10;25.40;62.90
74511;DHT22;62991;50.040;18.400;2022-08-19T16:41:12;25.50;62.40
74511;DHT22;62991;50.040;18.400;2022-08-19T16:44:20;25.40;62.20
74511;DHT22;62991;50.040;18.400;2022-08-19T16:47:24;25.40;62.20
74511;DHT22;62991;50.040;18.400;2022-08-19T16:50:25;25.20;63.50
74511;DHT22;62991;50.040;18.400;2022-08-19T16:53:27;24.40;67.00
74511;DHT22;62991;50.040;18.400;2022-08-19T16:56:28;23.60;69.60
74511;DHT22;62991;50.040;18.400;2022-08-19T16:59:29;23.20;70.90
74511;DHT22;62991;50.040;18.400;2022-08-19T17:02:29;23.00;71.50
74511;DHT22;62991;50.040;18.400;2022-08-19T17:05:30;22.90;72.00
74511;DHT22;62991;50.040;18.400;2022-08-19T17:08:31;22.80;72.00
74511;DHT22;62991;50.040;18.400;2022-08-19T17:11:33;22.80;72.10
74511;DHT22;62991;50.040;18.400;2022-08-19T17:14:34;22.90;72.10
74511;DHT22;62991;50.040;18.400;2022-08-19T17:17:35;23.00;72.10
74511;DHT22;62991;50.040;18.400;2022-08-19T17:20:37;23.00;72.10
74511;DHT22;62991;50.040;18.400;2022-08-19T17:23:38;23.00;72.30
74511;DHT22;62991;50.040;18.400;2022-08-19T17:26:39;23.10;72.20
74511;DHT22;62991;50.040;18.400;2022-08-19T17:29:40;23.00;72.30
74511;DHT22;62991;50.040;18.400;2022-08-19T17:32:41;23.10;72.50
74511;DHT22;62991;50.040;18.400;2022-08-19T17:35:42;23.20;72.50
74511;DHT22;62991;50.040;18.400;2022-08-19T17:38:44;23.30;72.50
74511;DHT22;62991;50.040;18.400;2022-08-19T17:41:45;23.20;74.60
74511;DHT22;62991;50.040;18.400;2022-08-19T17:44:45;23.00;75.20
74511;DHT22;62991;50.040;18.400;2022-08-19T17:47:46;22.90;75.10
74511;DHT22;62991;50.040;18.400;2022-08-19T17:50:47;22.90;75.00
74511;DHT22;62991;50.040;18.400;2022-08-19T17:53:52;22.80;74.70
74511;DHT22;62991;50.040;18.400;2022-08-19T17:56:53;22.90;74.70
74511;DHT22;62991;50.040;18.400;2022-08-19T17:59:54;22.90;74.90
74511;DHT22;62991;50.040;18.400;2022-08-19T18:02:57;23.20;82.80
74511;DHT22;62991;50.040;18.400;2022-08-19T18:05:58;23.50;84.30
74511;DHT22;62991;50.040;18.400;2022-08-19T18:08:59;23.70;84.10
74511;DHT22;62991;50.040;18.400;2022-08-19T18:12:00;23.80;83.30
74511;DHT22;62991;50.040;18.400;2022-08-19T18:15:04;23.70;83.00
74511;DHT22;62991;50.040;18.400;2022-08-19T18:18:05;23.70;82.90
74511;DHT22;62991;50.040;18.400;2022-08-19T18:21:08;23.70;82.80
74511;DHT22;62991;50.040;18.400;2022-08-19T18:24:09;23.70;82.80
74511;DHT22;62991;50.040;18.400;2022-08-19T18:27:10;23.70;82.80
74511;DHT22;62991;50.040;18.400;2022-08-19T18:30:11;23.60;82.90
74511;DHT22;62991;50.040;18.400;2022-08-19T18:33:13;23.40;82.30
74511;DHT22;62991;50.040;18.400;2022-08-19T18:36:14;23.00;82.80
74511;DHT22;62991;50.040;18.400;2022-08-19T18:39:15;22.80;83.10
74511;DHT22;62991;50.040;18.400;2022-08-19T18:42:34;22.60;83.60
74511;DHT22;62991;50.040;18.400;2022-08-19T18:46:13;22.60;83.90
74511;DHT22;62991;50.040;18.400;2022-08-19T18:49:32;22.50;83.40
74511;DHT22;62991;50.040;18.400;2022-08-19T18:52:36;22.50;83.70
74511;DHT22;62991;50.040;18.400;2022-08-19T18:55:37;22.50;83.80
74511;DHT22;62991;50.040;18.400;2022-08-19T18:58:39;22.60;83.80
74511;DHT22;62991;50.040;18.400;2022-08-19T19:01:43;22.60;83.80
74511;DHT22;62991;50.040;18.400;2022-08-19T19:04:50;22.60;83.90
74511;DHT22;62991;50.040;18.400;2022-08-19T19:07:51;22.70;84.00